sensor_id;sensor_type;location;lat;lon;timestamp;pressure;altitude;pressure_sealevel;temperature;humidity
37304;BME280;23188;51.188;16.374;2022-07-23T00:01:02;100290.70;;;20.90;72.66
37304;BME280;23188;51.188;16.374;2022-07-23T00:05:03;100288.93;;;20.86;72.53
37304;BME280;23188;51.188;16.374;2022-07-23T00:09:05;100282.42;;;20.80;72.27
37304;BME280;23188;51.188;16.374;2022-07-23T00:13:06;100280.72;;;20.68;72.39
37304;BME280;23188;51.188;16.374;2022-07-23T00:17:07;100288.90;;;20.64;72.58
37304;BME280;23188;51.188;16.374;2022-07-23T00:21:08;100287.27;;;20.59;72.59
37304;BME280;23188;51.188;16.374;2022-07-23T00:25:09;100284.95;;;20.56;72.75
37304;BME280;23188;51.188;16.374;2022-07-23T00:29:10;100295.28;;;20.41;73.48
37304;BME280;23188;51.188;16.374;2022-07-23T00:33:11;100294.69;;;20.24;74.03
37304;BME280;23188;51.188;16.374;2022-07-23T00:37:13;100293.08;;;20.19;74.11
37304;BME280;23188;51.188;16.374;2022-07-23T00:41:14;100294.48;;;20.15;74.63
37304;BME280;23188;51.188;16.374;2022-07-23T00:45:15;100283.47;;;20.17;74.71
37304;BME280;23188;51.188;16.374;2022-07-23T00:49:16;100288.61;;;20.11;75.73
37304;BME280;23188;51.188;16.374;2022-07-23T00:53:17;100301.47;;;20.09;75.57
37304;BME280;23188;51.188;16.374;2022-07-23T00:57:20;100297.03;;;20.12;75.59
37304;BME280;23188;51.188;16.374;2022-07-23T01:01:21;100305.78;;;20.15;75.57
37304;BME280;23188;51.188;16.374;2022-07-23T01:05:23;100306.92;;;20.05;76.28
37304;BME280;23188;51.188;16.374;2022-07-23T01:09:24;100307.01;;;19.97;74.76
37304;BME280;23188;51.188;16.374;2022-07-23T01:13:25;100306.38;;;19.91;74.26
37304;BME280;23188;51.188;16.374;2022-07-23T01:17:26;100304.23;;;19.86;74.30
37304;BME280;23188;51.188;16.374;2022-07-23T01:21:28;100297.87;;;19.83;74.80
37304;BME280;23188;51.188;16.374;2022-07-23T01:25:30;100299.50;;;19.73;75.98
37304;BME280;23188;51.188;16.374;2022-07-23T01:29:31;100300.27;;;19.63;76.67
37304;BME280;23188;51.188;16.374;2022-07-23T01:33:32;100296.05;;;19.64;76.37
37304;BME280;23188;51.188;16.374;2022-07-23T01:37:33;100295.58;;;19.61;77.91
37304;BME280;23188;51.188;16.374;2022-07-23T01:41:34;100280.84;;;19.52;80.06
37304;BME280;23188;51.188;16.374;2022-07-23T01:45:35;100273.56;;;19.53;81.01
37304;BME280;23188;51.188;16.374;2022-07-23T01:49:37;100252.89;;;19.49;80.78
37304;BME280;23188;51.188;16.374;2022-07-23T01:53:38;100262.98;;;19.36;80.95
37304;BME280;23188;51.188;16.374;2022-07-23T01:57:39;100257.86;;;19.22;80.72
37304;BME280;23188;51.188;16.374;2022-07-23T02:01:40;100263.56;;;19.28;80.17
37304;BME280;23188;51.188;16.374;2022-07-23T02:05:42;100260.08;;;19.38;79.84
37304;BME280;23188;51.188;16.374;2022-07-23T02:09:43;100258.28;;;19.49;79.12
37304;BME280;23188;51.188;16.374;2022-07-23T02:13:44;100260.08;;;19.53;78.48
37304;BME280;23188;51.188;16.374;2022-07-23T02:17:45;100260.73;;;19.40;77.84
37304;BME280;23188;51.188;16.374;2022-07-23T02:21:46;100261.97;;;19.33;78.03
37304;BME280;23188;51.188;16.374;2022-07-23T02:25:47;100256.73;;;19.36;78.17
37304;BME280;23188;51.188;16.374;2022-07-23T02:29:49;100252.31;;;19.39;78.30
37304;BME280;23188;51.188;16.374;2022-07-23T02:33:50;100241.25;;;19.34;78.81
37304;BME280;23188;51.188;16.374;2022-07-23T02:37:51;100240.22;;;19.35;79.17
37304;BME280;23188;51.188;16.374;2022-07-23T02:41:52;100238.83;;;19.39;78.61
37304;BME280;23188;51.188;16.374;2022-07-23T02:45:53;100233.43;;;19.39;78.78
37304;BME280;23188;51.188;16.374;2022-07-23T02:49:54;100233.11;;;19.38;77.83
37304;BME280;23188;51.188;16.374;2022-07-23T02:53:56;100238.59;;;19.30;78.07
37304;BME280;23188;51.188;16.374;2022-07-23T02:57:57;100233.67;;;18.99;79.38
37304;BME280;23188;51.188;16.374;2022-07-23T03:01:58;100238.63;;;18.87;79.20
37304;BME280;23188;51.188;16.374;2022-07-23T03:05:59;100244.35;;;18.88;79.48
37304;BME280;23188;51.188;16.374;2022-07-23T03:10:01;100245.70;;;18.88;80.22
37304;BME280;23188;51.188;16.374;2022-07-23T03:14:03;100239.34;;;18.81;80.23
37304;BME280;23188;51.188;16.374;2022-07-23T03:18:04;100242.56;;;18.80;81.80
37304;BME280;23188;51.188;16.374;2022-07-23T03:22:05;100238.45;;;18.65;84.38
37304;BME280;23188;51.188;16.374;2022-07-23T03:26:06;100227.63;;;18.50;85.73
37304;BME280;23188;51.188;16.374;2022-07-23T03:30:08;100224.67;;;18.37;87.10
37304;BME280;23188;51.188;16.374;2022-07-23T03:34:10;100224.91;;;18.27;87.78
37304;BME280;23188;51.188;16.374;2022-07-23T03:38:11;100237.67;;;18.33;87.66
37304;BME280;23188;51.188;16.374;2022-07-23T03:42:13;100238.30;;;18.39;87.80
37304;BME280;23188;51.188;16.374;2022-07-23T03:46:14;100234.72;;;18.47;88.09
37304;BME280;23188;51.188;16.374;2022-07-23T03:50:15;100235.98;;;18.60;88.21
37304;BME280;23188;51.188;16.374;2022-07-23T03:54:16;100232.89;;;18.67;87.96
37304;BME280;23188;51.188;16.374;2022-07-23T03:58:17;100233.98;;;18.77;87.50
37304;BME280;23188;51.188;16.374;2022-07-23T04:02:18;100231.28;;;18.96;86.99
37304;BME280;23188;51.188;16.374;2022-07-23T04:06:20;100231.86;;;19.10;87.08
37304;BME280;23188;51.188;16.374;2022-07-23T04:10:21;100240.97;;;19.29;86.38
37304;BME280;23188;51.188;16.374;2022-07-23T04:14:22;100234.10;;;19.56;86.02
37304;BME280;23188;51.188;16.374;2022-07-23T04:18:23;100228.98;;;19.87;85.34
37304;BME280;23188;51.188;16.374;2022-07-23T04:22:24;100231.53;;;20.15;85.49
37304;BME280;23188;51.188;16.374;2022-07-23T04:26:25;100221.84;;;20.42;83.15
37304;BME280;23188;51.188;16.374;2022-07-23T04:30:26;100218.81;;;20.74;81.25
37304;BME280;23188;51.188;16.374;2022-07-23T04:34:28;100207.35;;;21.22;80.36
37304;BME280;23188;51.188;16.374;2022-07-23T04:38:29;100201.59;;;21.67;78.32
37304;BME280;23188;51.188;16.374;2022-07-23T04:42:30;100185.08;;;22.10;75.45
37304;BME280;23188;51.188;16.374;2022-07-23T04:46:31;100177.80;;;22.24;74.96
37304;BME280;23188;51.188;16.374;2022-07-23T04:50:32;100167.00;;;22.38;74.69
37304;BME280;23188;51.188;16.374;2022-07-23T04:54:34;100168.47;;;22.40;74.71
37304;BME280;23188;51.188;16.374;2022-07-23T04:58:35;100158.38;;;22.52;74.56
37304;BME280;23188;51.188;16.374;2022-07-23T05:02:36;100153.16;;;22.57;74.12
37304;BME280;23188;51.188;16.374;2022-07-23T05:06:37;100145.03;;;22.64;73.88
37304;BME280;23188;51.188;16.374;2022-07-23T05:10:38;100132.09;;;22.86;73.65
37304;BME280;23188;51.188;16.374;2022-07-23T05:14:40;100138.59;;;23.21;72.32
37304;BME280;23188;51.188;16.374;2022-07-23T05:18:41;100130.55;;;23.31;71.80
37304;BME280;23188;51.188;16.374;2022-07-23T05:22:42;100118.95;;;23.33;70.68
37304;BME280;23188;51.188;16.374;2022-07-23T05:26:43;100112.91;;;23.31;70.92
37304;BME280;23188;51.188;16.374;2022-07-23T05:30:44;100107.78;;;23.32;71.41
37304;BME280;23188;51.188;16.374;2022-07-23T05:34:45;100116.05;;;23.28;71.66
37304;BME280;23188;51.188;16.374;2022-07-23T05:38:46;100117.72;;;23.29;71.89
37304;BME280;23188;51.188;16.374;2022-07-23T05:42:47;100114.04;;;23.39;72.37
37304;BME280;23188;51.188;16.374;2022-07-23T05:46:48;100109.61;;;23.45;72.58
37304;BME280;23188;51.188;16.374;2022-07-23T05:50:50;100104.77;;;23.53;72.39
37304;BME280;23188;51.188;16.374;2022-07-23T05:54:51;100104.81;;;23.70;72.59
37304;BME280;23188;51.188;16.374;2022-07-23T05:58:52;100106.86;;;24.13;72.00
37304;BME280;23188;51.188;16.374;2022-07-23T06:02:53;100108.69;;;24.70;70.07
37304;BME280;23188;51.188;16.374;2022-07-23T06:06:54;100109.73;;;25.22;67.48
37304;BME280;23188;51.188;16.374;2022-07-23T06:10:55;100099.33;;;25.90;65.26
37304;BME280;23188;51.188;16.374;2022-07-23T06:14:56;100094.24;;;26.36;63.09
37304;BME280;23188;51.188;16.374;2022-07-23T06:18:57;100084.58;;;26.66;61.90
37304;BME280;23188;51.188;16.374;2022-07-23T06:22:58;100078.13;;;26.70;61.95
37304;BME280;23188;51.188;16.374;2022-07-23T06:26:59;100075.03;;;26.90;61.61
37304;BME280;23188;51.188;16.374;2022-07-23T06:31:00;100067.61;;;27.41;59.99
37304;BME280;23188;51.188;16.374;2022-07-23T06:35:02;100063.49;;;27.53;59.42
37304;BME280;23188;51.188;16.374;2022-07-23T06:39:03;100056.80;;;27.32;59.35
37304;BME280;23188;51.188;16.374;2022-07-23T06:43:04;100050.11;;;27.25;58.80
37304;BME280;23188;51.188;16.374;2022-07-23T06:47:06;100054.70;;;26.96;59.77
37304;BME280;23188;51.188;16.374;2022-07-23T06:51:07;100039.23;;;26.75;60.46
37304;BME280;23188;51.188;16.374;2022-07-23T06:55:09;100046.70;;;26.56;61.13
37304;BME280;23188;51.188;16.374;2022-07-23T06:59:10;100046.67;;;26.79;61.64
37304;BME280;23188;51.188;16.374;2022-07-23T07:03:11;100041.05;;;27.10;60.23
37304;BME280;23188;51.188;16.374;2022-07-23T07:07:12;100028.79;;;27.68;59.13
37304;BME280;23188;51.188;16.374;2022-07-23T07:11:14;100028.10;;;28.09;58.03
37304;BME280;23188;51.188;16.374;2022-07-23T07:15:15;100039.78;;;28.56;57.06
37304;BME280;23188;51.188;16.374;2022-07-23T07:19:16;100009.24;;;28.84;56.28
37304;BME280;23188;51.188;16.374;2022-07-23T07:23:17;100017.59;;;29.19;55.83
37304;BME280;23188;51.188;16.374;2022-07-23T07:27:18;100020.27;;;29.39;55.76
37304;BME280;23188;51.188;16.374;2022-07-23T07:31:21;100023.00;;;29.64;55.36
37304;BME280;23188;51.188;16.374;2022-07-23T07:35:22;100016.57;;;29.78;55.00
37304;BME280;23188;51.188;16.374;2022-07-23T07:39:24;100002.96;;;29.91;55.35
37304;BME280;23188;51.188;16.374;2022-07-23T07:43:25;100017.63;;;29.74;54.89
37304;BME280;23188;51.188;16.374;2022-07-23T07:47:26;100019.69;;;29.62;55.04
37304;BME280;23188;51.188;16.374;2022-07-23T07:51:27;100022.73;;;29.38;55.14
37304;BME280;23188;51.188;16.374;2022-07-23T07:55:29;100031.09;;;29.01;55.80
37304;BME280;23188;51.188;16.374;2022-07-23T07:59:31;100050.27;;;29.04;56.35
37304;BME280;23188;51.188;16.374;2022-07-23T08:03:32;100065.78;;;28.96;56.79
37304;BME280;23188;51.188;16.374;2022-07-23T08:07:33;100044.58;;;28.69;56.58
37304;BME280;23188;51.188;16.374;2022-07-23T08:11:34;100024.44;;;28.35;57.43
37304;BME280;23188;51.188;16.374;2022-07-23T08:15:35;100037.77;;;28.15;58.08
37304;BME280;23188;51.188;16.374;2022-07-23T08:19:37;100038.17;;;28.06;58.65
37304;BME280;23188;51.188;16.374;2022-07-23T08:23:38;100033.55;;;28.07;58.14
37304;BME280;23188;51.188;16.374;2022-07-23T08:27:40;100038.23;;;27.92;59.00
37304;BME280;23188;51.188;16.374;2022-07-23T08:31:42;100048.40;;;27.97;59.25
37304;BME280;23188;51.188;16.374;2022-07-23T08:35:46;100044.14;;;28.18;58.71
37304;BME280;23188;51.188;16.374;2022-07-23T08:39:48;100045.24;;;28.36;58.67
37304;BME280;23188;51.188;16.374;2022-07-23T08:43:49;100048.91;;;28.64;57.86
37304;BME280;23188;51.188;16.374;2022-07-23T08:47:53;100045.33;;;28.81;57.54
37304;BME280;23188;51.188;16.374;2022-07-23T08:51:55;100046.28;;;28.89;57.99
37304;BME280;23188;51.188;16.374;2022-07-23T08:55:59;100039.31;;;29.04;57.09
37304;BME280;23188;51.188;16.374;2022-07-23T09:00:05;100039.09;;;29.08;56.84
37304;BME280;23188;51.188;16.374;2022-07-23T09:04:07;100035.73;;;29.26;57.05
37304;BME280;23188;51.188;16.374;2022-07-23T09:12:17;100061.52;;;29.52;56.40
37304;BME280;23188;51.188;16.374;2022-07-23T09:16:25;100064.17;;;29.69;55.68
37304;BME280;23188;51.188;16.374;2022-07-23T09:20:29;100069.81;;;29.87;56.78
37304;BME280;23188;51.188;16.374;2022-07-23T09:24:31;100074.24;;;29.93;57.24
37304;BME280;23188;51.188;16.374;2022-07-23T09:28:32;100075.65;;;29.96;59.27
37304;BME280;23188;51.188;16.374;2022-07-23T09:32:33;100061.79;;;30.08;58.18
37304;BME280;23188;51.188;16.374;2022-07-23T09:36:35;100064.06;;;30.19;56.45
37304;BME280;23188;51.188;16.374;2022-07-23T09:40:36;100056.12;;;30.20;55.97
37304;BME280;23188;51.188;16.374;2022-07-23T09:44:43;100056.48;;;30.31;54.94
37304;BME280;23188;51.188;16.374;2022-07-23T09:48:46;100054.44;;;30.16;55.39
37304;BME280;23188;51.188;16.374;2022-07-23T09:52:49;100057.61;;;30.35;55.84
37304;BME280;23188;51.188;16.374;2022-07-23T09:56:52;100036.87;;;30.55;54.40
37304;BME280;23188;51.188;16.374;2022-07-23T10:00:54;100058.13;;;30.73;53.80
37304;BME280;23188;51.188;16.374;2022-07-23T10:04:56;100062.38;;;30.53;56.68
37304;BME280;23188;51.188;16.374;2022-07-23T10:08:59;100075.63;;;30.24;59.76
37304;BME280;23188;51.188;16.374;2022-07-23T10:13:02;100089.60;;;29.92;61.35
37304;BME280;23188;51.188;16.374;2022-07-23T10:17:05;100096.09;;;29.56;61.10
37304;BME280;23188;51.188;16.374;2022-07-23T10:21:08;100081.97;;;29.42;61.89
37304;BME280;23188;51.188;16.374;2022-07-23T10:29:42;100085.97;;;29.36;59.48
37304;BME280;23188;51.188;16.374;2022-07-23T10:42:33;100118.48;;;29.08;59.05
37304;BME280;23188;51.188;16.374;2022-07-23T10:46:34;100121.16;;;29.03;61.30
37304;BME280;23188;51.188;16.374;2022-07-23T10:51:14;100115.80;;;28.91;60.87
37304;BME280;23188;51.188;16.374;2022-07-23T10:59:29;100116.78;;;28.82;62.16
37304;BME280;23188;51.188;16.374;2022-07-23T11:03:33;100101.08;;;28.77;62.54
37304;BME280;23188;51.188;16.374;2022-07-23T11:08:09;100106.53;;;28.75;63.38
37304;BME280;23188;51.188;16.374;2022-07-23T11:16:30;100113.10;;;28.76;63.19
37304;BME280;23188;51.188;16.374;2022-07-23T11:20:34;100105.13;;;28.89;61.46
37304;BME280;23188;51.188;16.374;2022-07-23T11:24:49;100115.41;;;29.02;62.03
37304;BME280;23188;51.188;16.374;2022-07-23T11:28:42;100102.06;;;29.08;59.76
37304;BME280;23188;51.188;16.374;2022-07-23T11:32:44;100101.41;;;29.20;59.81
37304;BME280;23188;51.188;16.374;2022-07-23T11:36:50;100090.64;;;29.36;59.33
37304;BME280;23188;51.188;16.374;2022-07-23T11:40:55;100078.66;;;29.67;58.37
37304;BME280;23188;51.188;16.374;2022-07-23T11:45:00;100077.80;;;29.91;58.05
37304;BME280;23188;51.188;16.374;2022-07-23T11:49:02;100079.36;;;30.10;57.16
37304;BME280;23188;51.188;16.374;2022-07-23T11:53:03;100085.76;;;30.23;55.27
37304;BME280;23188;51.188;16.374;2022-07-23T11:57:05;100078.87;;;30.18;55.22
37304;BME280;23188;51.188;16.374;2022-07-23T12:01:06;100072.95;;;30.31;56.25
37304;BME280;23188;51.188;16.374;2022-07-23T12:05:17;100067.06;;;30.55;55.94
37304;BME280;23188;51.188;16.374;2022-07-23T12:09:17;100065.77;;;30.66;56.10
37304;BME280;23188;51.188;16.374;2022-07-23T12:13:19;100064.22;;;30.85;55.40
37304;BME280;23188;51.188;16.374;2022-07-23T12:17:31;100057.08;;;30.84;55.20
37304;BME280;23188;51.188;16.374;2022-07-23T12:21:35;100052.21;;;31.02;55.35
37304;BME280;23188;51.188;16.374;2022-07-23T12:25:39;100052.27;;;31.17;54.77
37304;BME280;23188;51.188;16.374;2022-07-23T12:29:42;100050.59;;;31.09;53.78
37304;BME280;23188;51.188;16.374;2022-07-23T12:33:43;100051.95;;;31.03;54.17
37304;BME280;23188;51.188;16.374;2022-07-23T12:37:46;100048.08;;;30.97;53.80
37304;BME280;23188;51.188;16.374;2022-07-23T12:41:52;100047.00;;;31.03;53.85
37304;BME280;23188;51.188;16.374;2022-07-23T12:50:30;100049.53;;;31.17;53.42
37304;BME280;23188;51.188;16.374;2022-07-23T12:54:33;100045.92;;;31.06;54.72
37304;BME280;23188;51.188;16.374;2022-07-23T12:58:49;100046.02;;;31.32;54.80
37304;BME280;23188;51.188;16.374;2022-07-23T13:02:51;100052.38;;;31.51;54.45
37304;BME280;23188;51.188;16.374;2022-07-23T13:06:55;100051.02;;;31.64;55.00
37304;BME280;23188;51.188;16.374;2022-07-23T13:10:58;100052.40;;;31.59;54.68
37304;BME280;23188;51.188;16.374;2022-07-23T13:15:01;100063.65;;;31.47;54.95
37304;BME280;23188;51.188;16.374;2022-07-23T13:19:02;100064.75;;;31.51;55.14
37304;BME280;23188;51.188;16.374;2022-07-23T13:23:04;100055.40;;;31.37;55.26
37304;BME280;23188;51.188;16.374;2022-07-23T13:27:07;100053.33;;;31.03;56.00
37304;BME280;23188;51.188;16.374;2022-07-23T13:31:08;100050.55;;;30.96;56.09
37304;BME280;23188;51.188;16.374;2022-07-23T13:35:10;100041.48;;;30.92;56.32
37304;BME280;23188;51.188;16.374;2022-07-23T13:39:12;100043.94;;;30.94;56.30
37304;BME280;23188;51.188;16.374;2022-07-23T13:43:16;100037.09;;;30.91;55.64
37304;BME280;23188;51.188;16.374;2022-07-23T13:47:19;100060.34;;;30.76;55.89
37304;BME280;23188;51.188;16.374;2022-07-23T13:51:20;100068.81;;;30.67;56.88
37304;BME280;23188;51.188;16.374;2022-07-23T13:55:22;100081.98;;;30.32;57.35
37304;BME280;23188;51.188;16.374;2022-07-23T13:59:23;100099.19;;;30.22;58.27
37304;BME280;23188;51.188;16.374;2022-07-23T14:03:24;100094.17;;;30.09;61.74
37304;BME280;23188;51.188;16.374;2022-07-23T14:07:25;100123.23;;;30.10;61.77
37304;BME280;23188;51.188;16.374;2022-07-23T14:11:26;100111.39;;;30.06;62.07
37304;BME280;23188;51.188;16.374;2022-07-23T14:15:30;100094.93;;;29.76;62.40
37304;BME280;23188;51.188;16.374;2022-07-23T14:19:32;100096.61;;;29.53;62.96
37304;BME280;23188;51.188;16.374;2022-07-23T14:23:33;100111.77;;;29.60;62.92
37304;BME280;23188;51.188;16.374;2022-07-23T14:27:35;100119.95;;;29.58;62.59
37304;BME280;23188;51.188;16.374;2022-07-23T14:31:38;100120.19;;;29.56;62.46
37304;BME280;23188;51.188;16.374;2022-07-23T14:35:39;100124.91;;;29.61;62.12
37304;BME280;23188;51.188;16.374;2022-07-23T14:39:41;100128.53;;;29.67;61.47
37304;BME280;23188;51.188;16.374;2022-07-23T14:43:43;100130.33;;;29.81;60.69
37304;BME280;23188;51.188;16.374;2022-07-23T14:47:46;100126.17;;;29.75;60.61
37304;BME280;23188;51.188;16.374;2022-07-23T14:51:48;100129.91;;;29.42;60.32
37304;BME280;23188;51.188;16.374;2022-07-23T14:55:49;100130.36;;;29.36;59.84
37304;BME280;23188;51.188;16.374;2022-07-23T14:59:51;100143.22;;;29.13;60.47
37304;BME280;23188;51.188;16.374;2022-07-23T15:03:52;100142.55;;;28.86;61.15
37304;BME280;23188;51.188;16.374;2022-07-23T15:07:53;100141.94;;;28.64;60.88
37304;BME280;23188;51.188;16.374;2022-07-23T15:11:55;100142.73;;;28.62;60.35
37304;BME280;23188;51.188;16.374;2022-07-23T15:15:57;100141.13;;;28.81;60.02
37304;BME280;23188;51.188;16.374;2022-07-23T15:19:58;100147.67;;;29.19;59.16
37304;BME280;23188;51.188;16.374;2022-07-23T15:23:59;100149.61;;;29.21;58.50
37304;BME280;23188;51.188;16.374;2022-07-23T15:28:01;100144.50;;;29.08;58.72
37304;BME280;23188;51.188;16.374;2022-07-23T15:32:02;100148.66;;;28.91;60.03
37304;BME280;23188;51.188;16.374;2022-07-23T15:36:04;100147.53;;;28.72;60.18
37304;BME280;23188;51.188;16.374;2022-07-23T15:40:08;100139.06;;;28.54;60.58
37304;BME280;23188;51.188;16.374;2022-07-23T15:44:10;100143.13;;;28.34;62.01
37304;BME280;23188;51.188;16.374;2022-07-23T15:48:12;100152.05;;;28.15;62.61
37304;BME280;23188;51.188;16.374;2022-07-23T15:52:13;100145.98;;;27.96;63.21
37304;BME280;23188;51.188;16.374;2022-07-23T15:56:14;100148.52;;;27.86;63.68
37304;BME280;23188;51.188;16.374;2022-07-23T16:00:16;100152.51;;;27.66;64.23
37304;BME280;23188;51.188;16.374;2022-07-23T16:04:17;100153.55;;;27.62;64.85
37304;BME280;23188;51.188;16.374;2022-07-23T16:08:18;100152.81;;;27.53;65.04
37304;BME280;23188;51.188;16.374;2022-07-23T16:12:20;100155.52;;;27.41;65.31
37304;BME280;23188;51.188;16.374;2022-07-23T16:16:21;100155.52;;;27.41;65.31
37304;BME280;23188;51.188;16.374;2022-07-23T16:20:24;100163.64;;;27.50;64.89
37304;BME280;23188;51.188;16.374;2022-07-23T16:24:26;100144.40;;;27.30;64.79
37304;BME280;23188;51.188;16.374;2022-07-23T16:28:27;100169.72;;;27.40;64.29
37304;BME280;23188;51.188;16.374;2022-07-23T16:32:29;100190.89;;;27.09;66.07
37304;BME280;23188;51.188;16.374;2022-07-23T16:36:30;100203.10;;;26.83;67.82
37304;BME280;23188;51.188;16.374;2022-07-23T16:40:32;100218.92;;;26.50;68.90
37304;BME280;23188;51.188;16.374;2022-07-23T16:44:33;100222.35;;;26.24;70.13
37304;BME280;23188;51.188;16.374;2022-07-23T16:48:34;100210.59;;;26.23;70.25
37304;BME280;23188;51.188;16.374;2022-07-23T16:52:36;100217.84;;;26.18;70.36
37304;BME280;23188;51.188;16.374;2022-07-23T16:56:37;100225.47;;;26.09;70.08
37304;BME280;23188;51.188;16.374;2022-07-23T17:00:39;100223.76;;;25.87;70.35
37304;BME280;23188;51.188;16.374;2022-07-23T17:04:40;100226.20;;;25.67;71.07
37304;BME280;23188;51.188;16.374;2022-07-23T17:08:42;100230.89;;;25.50;71.62
37304;BME280;23188;51.188;16.374;2022-07-23T17:12:43;100227.86;;;25.49;71.77
37304;BME280;23188;51.188;16.374;2022-07-23T17:16:50;100227.86;;;25.49;72.00
37304;BME280;23188;51.188;16.374;2022-07-23T17:20:52;100233.85;;;25.49;71.97
37304;BME280;23188;51.188;16.374;2022-07-23T17:24:54;100229.56;;;25.44;71.83
37304;BME280;23188;51.188;16.374;2022-07-23T17:28:55;100224.88;;;25.42;71.74
37304;BME280;23188;51.188;16.374;2022-07-23T17:32:56;100222.23;;;25.44;71.72
37304;BME280;23188;51.188;16.374;2022-07-23T17:36:58;100219.61;;;25.47;70.90
37304;BME280;23188;51.188;16.374;2022-07-23T17:41:19;100231.64;;;25.48;70.44
37304;BME280;23188;51.188;16.374;2022-07-23T17:45:20;100233.64;;;25.44;70.83
37304;BME280;23188;51.188;16.374;2022-07-23T17:49:32;100239.09;;;25.34;71.24
37304;BME280;23188;51.188;16.374;2022-07-23T17:53:34;100241.06;;;25.27;71.63
37304;BME280;23188;51.188;16.374;2022-07-23T17:57:36;100246.41;;;25.24;72.19
37304;BME280;23188;51.188;16.374;2022-07-23T18:01:40;100245.36;;;25.26;72.19
37304;BME280;23188;51.188;16.374;2022-07-23T18:05:42;100256.25;;;25.26;72.04
37304;BME280;23188;51.188;16.374;2022-07-23T18:09:44;100254.04;;;25.25;71.91
37304;BME280;23188;51.188;16.374;2022-07-23T18:13:45;100259.12;;;25.21;72.22
37304;BME280;23188;51.188;16.374;2022-07-23T18:17:47;100262.80;;;25.18;72.15
37304;BME280;23188;51.188;16.374;2022-07-23T18:21:48;100265.73;;;25.07;72.42
37304;BME280;23188;51.188;16.374;2022-07-23T18:25:49;100275.09;;;25.02;72.49
37304;BME280;23188;51.188;16.374;2022-07-23T18:29:51;100272.94;;;24.94;71.96
37304;BME280;23188;51.188;16.374;2022-07-23T18:33:54;100289.75;;;24.85;71.88
37304;BME280;23188;51.188;16.374;2022-07-23T18:37:56;100293.06;;;24.77;71.92
37304;BME280;23188;51.188;16.374;2022-07-23T18:41:57;100304.70;;;24.68;71.67
37304;BME280;23188;51.188;16.374;2022-07-23T18:45:59;100302.02;;;24.62;71.27
37304;BME280;23188;51.188;16.374;2022-07-23T18:50:04;100314.42;;;24.51;71.35
37304;BME280;23188;51.188;16.374;2022-07-23T18:54:07;100324.23;;;24.36;71.69
37304;BME280;23188;51.188;16.374;2022-07-23T18:58:10;100325.88;;;24.21;71.83
37304;BME280;23188;51.188;16.374;2022-07-23T19:02:13;100325.08;;;24.00;72.37
37304;BME280;23188;51.188;16.374;2022-07-23T19:06:17;100338.16;;;23.87;72.69
37304;BME280;23188;51.188;16.374;2022-07-23T19:10:20;100342.05;;;23.75;72.96
37304;BME280;23188;51.188;16.374;2022-07-23T19:14:22;100360.13;;;23.65;73.18
37304;BME280;23188;51.188;16.374;2022-07-23T19:18:27;100361.30;;;23.53;73.43
37304;BME280;23188;51.188;16.374;2022-07-23T19:22:28;100363.30;;;23.49;73.40
37304;BME280;23188;51.188;16.374;2022-07-23T19:26:30;100368.81;;;23.38;73.81
37304;BME280;23188;51.188;16.374;2022-07-23T19:30:31;100374.88;;;23.33;73.93
37304;BME280;23188;51.188;16.374;2022-07-23T19:34:32;100372.28;;;23.29;73.92
37304;BME280;23188;51.188;16.374;2022-07-23T19:38:35;100374.03;;;23.26;73.90
37304;BME280;23188;51.188;16.374;2022-07-23T19:42:36;100382.87;;;23.24;74.28
37304;BME280;23188;51.188;16.374;2022-07-23T19:46:38;100380.45;;;23.18;74.54
37304;BME280;23188;51.188;16.374;2022-07-23T19:50:39;100383.50;;;23.13;74.94
37304;BME280;23188;51.188;16.374;2022-07-23T19:54:41;100387.24;;;23.05;74.69
37304;BME280;23188;51.188;16.374;2022-07-23T19:58:42;100392.84;;;22.96;75.85
37304;BME280;23188;51.188;16.374;2022-07-23T20:02:44;100389.94;;;22.98;75.95
37304;BME280;23188;51.188;16.374;2022-07-23T20:06:46;100394.32;;;22.99;76.34
37304;BME280;23188;51.188;16.374;2022-07-23T20:10:47;100394.63;;;23.00;76.43
37304;BME280;23188;51.188;16.374;2022-07-23T20:14:49;100404.32;;;22.99;76.76
37304;BME280;23188;51.188;16.374;2022-07-23T20:18:50;100413.91;;;22.94;76.47
37304;BME280;23188;51.188;16.374;2022-07-23T20:22:52;100410.45;;;22.83;75.96
37304;BME280;23188;51.188;16.374;2022-07-23T20:26:53;100418.44;;;22.74;75.57
37304;BME280;23188;51.188;16.374;2022-07-23T20:30:54;100420.72;;;22.63;75.17
37304;BME280;23188;51.188;16.374;2022-07-23T20:34:56;100425.70;;;22.60;75.17
37304;BME280;23188;51.188;16.374;2022-07-23T20:38:57;100435.68;;;22.52;75.38
37304;BME280;23188;51.188;16.374;2022-07-23T20:42:58;100442.23;;;22.54;75.22
37304;BME280;23188;51.188;16.374;2022-07-23T20:46:59;100439.30;;;22.49;75.27
37304;BME280;23188;51.188;16.374;2022-07-23T20:51:01;100443.58;;;22.36;75.44
37304;BME280;23188;51.188;16.374;2022-07-23T20:55:03;100449.80;;;22.30;75.89
37304;BME280;23188;51.188;16.374;2022-07-23T20:59:05;100451.20;;;22.19;75.96
37304;BME280;23188;51.188;16.374;2022-07-23T21:03:07;100459.28;;;22.13;75.70
37304;BME280;23188;51.188;16.374;2022-07-23T21:07:09;100453.17;;;22.04;76.26
37304;BME280;23188;51.188;16.374;2022-07-23T21:11:10;100459.58;;;21.96;76.43
37304;BME280;23188;51.188;16.374;2022-07-23T21:15:12;100456.31;;;21.90;76.17
37304;BME280;23188;51.188;16.374;2022-07-23T21:19:14;100466.58;;;21.83;75.88